This is the latest recevied weather packets stored in our database for station/object LZ2SLL-13. If no packets are shown the sender has not sent any weather packets the latest 10 day(s).
| Time | Temp. | Humidity | Pressure | Rain* | Wind** | Luminosity | Snow |
|---|---|---|---|---|---|---|---|
| 1777895895 | 18.33° C | 35% | - | 0 mm | - | 398 W/m² | - |
| 1777895595 | 18.33° C | 33% | - | 0 mm | - | 766 W/m² | - |
| 1777895294 | 18.33° C | 34% | - | 0 mm | - | 674 W/m² | - |
| 1777894692 | 18.33° C | 35% | - | 0 mm | - | 618 W/m² | - |
| 1777894091 | 18.33° C | 35% | - | 0 mm | - | 574 W/m² | - |
| 1777893790 | 18.89° C | 34% | - | 0 mm | - | 1219 W/m² | - |
| 1777893489 | 17.78° C | 34% | - | 0 mm | - | 780 W/m² | - |
| 1777893188 | 17.78° C | 39% | - | 0 mm | - | 686 W/m² | - |
| 1777892888 | 16.67° C | 39% | - | 0 mm | - | 425 W/m² | - |
| 1777892587 | 17.22° C | 40% | - | 0 mm | - | 412 W/m² | - |
| 1777892286 | 16.67° C | 40% | - | 0 mm | - | 444 W/m² | - |
| 1777891685 | 16.11° C | 39% | - | 0 mm | - | 276 W/m² | - |
| 1777891384 | 16.11° C | 38% | - | 0 mm | - | 288 W/m² | - |
| 1777890482 | 16.67° C | 40% | - | 0 mm | - | 389 W/m² | - |
| 1777889880 | 17.78° C | 39% | - | 0 mm | - | 611 W/m² | - |
| 1777889579 | 17.78° C | 38% | - | 0 mm | - | 615 W/m² | - |
| 1777889279 | 17.22° C | 39% | - | 0 mm | - | 583 W/m² | - |
| 1777888978 | 17.78° C | 41% | - | 0 mm | - | 569 W/m² | - |
| 1777888377 | 17.78° C | 41% | - | 0 mm | - | 1048 W/m² | - |
| 1777887474 | 16.11° C | 44% | - | 0 mm | - | 481 W/m² | - |
| 1777887174 | 15.56° C | 43% | - | 0 mm | - | 343 W/m² | - |
| 1777886872 | 16.11° C | 43% | - | 0 mm | - | 310 W/m² | - |
| 1777886571 | 16.11° C | 43% | - | 0 mm | - | 320 W/m² | - |
| 1777886270 | 15.56° C | 42% | - | 0 mm | - | 324 W/m² | - |
| 1777885970 | 16.11° C | 42% | - | 0 mm | - | 311 W/m² | - |
* Rain latest hour (hover to see other rain measurements)
** Current wind speed in m/s (hover to see current wind gust speed)